createdAt,value
2018-12-02T00:01:14.574Z,8.25
2018-12-02T00:03:44.628Z,8.28
2018-12-02T00:06:15.475Z,8.20
2018-12-02T00:08:45.633Z,8.20
2018-12-02T00:11:15.782Z,8.22
2018-12-02T00:13:47.582Z,8.23
2018-12-02T00:16:19.087Z,8.25
2018-12-02T00:18:49.429Z,8.31
2018-12-02T00:21:20.929Z,8.22
2018-12-02T00:23:51.689Z,8.26
2018-12-02T00:26:23.114Z,8.33
2018-12-02T00:28:54.253Z,8.34
2018-12-02T00:31:24.920Z,8.27
2018-12-02T00:33:55.462Z,8.28
2018-12-02T00:36:26.499Z,8.33
2018-12-02T00:38:57.283Z,8.36
2018-12-02T00:41:28.173Z,8.40
2018-12-02T00:43:58.814Z,8.41
2018-12-02T00:46:29.026Z,8.41
2018-12-02T00:48:59.897Z,8.39
2018-12-02T00:51:30.852Z,8.43
2018-12-02T00:54:01.773Z,8.51
2018-12-02T00:56:35.319Z,8.44
2018-12-02T00:59:05.429Z,8.44
2018-12-02T01:01:36.201Z,8.52
2018-12-02T01:04:06.352Z,8.53
2018-12-02T01:06:37.830Z,8.50
2018-12-02T01:09:09.231Z,8.53
2018-12-02T01:11:39.366Z,8.61
2018-12-02T01:14:10.198Z,8.56
2018-12-02T01:16:40.421Z,8.55
2018-12-02T01:19:10.778Z,8.44
2018-12-02T01:21:42.812Z,8.53
2018-12-02T01:24:14.081Z,8.46
2018-12-02T01:26:45.446Z,8.48
2018-12-02T01:29:15.403Z,8.45
2018-12-02T01:31:45.649Z,8.52
2018-12-02T01:34:16.896Z,8.56
2018-12-02T01:36:47.170Z,8.59
2018-12-02T01:39:18.803Z,8.56
2018-12-02T01:41:49.518Z,8.58
2018-12-02T01:44:20.691Z,8.62
2018-12-02T01:46:51.422Z,8.59
2018-12-02T01:49:22.062Z,8.58
2018-12-02T01:51:52.902Z,8.51
2018-12-02T01:54:23.841Z,8.57
2018-12-02T01:56:54.710Z,8.50
2018-12-02T01:59:25.313Z,8.52
2018-12-02T02:01:56.696Z,8.57
2018-12-02T02:04:26.813Z,8.50
2018-12-02T02:06:57.321Z,8.53
2018-12-02T02:09:28.620Z,8.56
2018-12-02T02:11:58.675Z,8.55
2018-12-02T02:14:29.224Z,8.53
2018-12-02T02:17:00.342Z,8.52
2018-12-02T02:19:30.931Z,8.62
2018-12-02T02:22:02.084Z,8.60
2018-12-02T02:24:33.225Z,8.52
2018-12-02T02:27:04.481Z,8.46
2018-12-02T02:29:36.230Z,8.53
2018-12-02T02:32:07.095Z,8.53
2018-12-02T02:34:37.894Z,8.50
2018-12-02T02:37:08.001Z,8.51
2018-12-02T02:39:38.710Z,8.56
2018-12-02T02:42:09.612Z,8.50
2018-12-02T02:44:39.651Z,8.46
2018-12-02T02:47:10.537Z,8.44
2018-12-02T02:49:41.124Z,8.48
2018-12-02T02:52:11.280Z,8.51
2018-12-02T02:54:42.773Z,8.52
2018-12-02T02:57:13.003Z,8.51
2018-12-02T02:59:43.593Z,8.54
2018-12-02T03:02:14.382Z,8.51
2018-12-02T03:04:46.474Z,8.59
2018-12-02T03:07:16.647Z,8.55
2018-12-02T03:09:47.213Z,8.54
2018-12-02T03:12:17.249Z,8.51
2018-12-02T03:14:47.398Z,8.48
2018-12-02T03:17:18.189Z,8.56
2018-12-02T03:19:49.503Z,8.51
2018-12-02T03:22:20.608Z,8.60
2018-12-02T03:24:51.328Z,8.60
2018-12-02T03:27:21.441Z,8.58
2018-12-02T03:29:52.162Z,8.54
2018-12-02T03:32:23.124Z,8.61
2018-12-02T03:34:54.299Z,8.56
2018-12-02T03:37:25.087Z,8.63
2018-12-02T03:39:55.160Z,8.59
2018-12-02T03:42:26.404Z,8.56
2018-12-02T03:44:56.863Z,8.56
2018-12-02T03:47:27.030Z,8.64
2018-12-02T03:49:58.414Z,8.58
2018-12-02T03:52:30.265Z,8.65
2018-12-02T03:55:00.292Z,8.60
2018-12-02T03:57:30.498Z,8.66
2018-12-02T04:00:01.262Z,8.49
2018-12-02T04:02:32.001Z,8.57
2018-12-02T04:05:02.849Z,8.59
2018-12-02T04:07:33.656Z,8.58
2018-12-02T04:10:06.847Z,8.60
2018-12-02T04:12:36.878Z,8.54
2018-12-02T04:15:12.962Z,8.56
2018-12-02T04:17:43.616Z,8.58
2018-12-02T04:20:16.801Z,8.58
2018-12-02T04:22:48.142Z,8.71
2018-12-02T04:25:33.816Z,8.65
2018-12-02T04:28:04.525Z,8.63
2018-12-02T04:30:36.136Z,8.57
2018-12-02T04:33:07.766Z,8.64
2018-12-02T04:35:39.026Z,8.64
2018-12-02T04:38:09.655Z,8.73
2018-12-02T04:40:41.414Z,8.72
2018-12-02T04:43:12.562Z,8.67
2018-12-02T04:45:43.910Z,8.76
2018-12-02T04:48:14.723Z,8.75
2018-12-02T04:50:45.357Z,8.77
2018-12-02T04:53:15.508Z,8.87
2018-12-02T04:55:46.220Z,8.84
2018-12-02T04:58:17.772Z,8.90
2018-12-02T05:00:47.841Z,8.85
2018-12-02T05:03:19.790Z,8.88
2018-12-02T05:05:50.602Z,8.83
2018-12-02T05:08:20.622Z,8.84
2018-12-02T05:10:51.618Z,8.89
2018-12-02T05:13:22.749Z,8.85
2018-12-02T05:15:54.502Z,8.89
2018-12-02T05:18:25.411Z,8.97
2018-12-02T05:21:07.210Z,8.83
2018-12-02T05:23:37.972Z,8.89
2018-12-02T05:26:09.528Z,8.86
2018-12-02T05:28:39.611Z,8.81
2018-12-02T05:31:10.196Z,8.78
2018-12-02T05:33:40.271Z,8.77
2018-12-02T05:36:10.791Z,8.82
2018-12-02T05:38:41.857Z,8.88
2018-12-02T05:41:11.842Z,8.85
2018-12-02T05:43:42.381Z,8.83
2018-12-02T05:46:12.461Z,8.88
2018-12-02T05:48:43.403Z,8.79
2018-12-02T05:51:13.439Z,8.74
2018-12-02T05:53:44.161Z,8.78
2018-12-02T05:56:15.073Z,8.76
2018-12-02T05:58:45.269Z,8.81
2018-12-02T06:01:15.875Z,8.76
2018-12-02T06:03:45.842Z,8.83
2018-12-02T06:06:15.943Z,8.76
2018-12-02T06:08:46.074Z,8.75
2018-12-02T06:11:17.995Z,8.76
2018-12-02T06:13:48.114Z,8.77
2018-12-02T06:16:20.966Z,8.81
2018-12-02T06:18:51.819Z,8.81
2018-12-02T06:21:24.221Z,8.79
2018-12-02T06:23:55.441Z,8.83
2018-12-02T06:26:26.590Z,8.84
2018-12-02T06:28:58.173Z,8.86
2018-12-02T06:31:29.321Z,8.90
2018-12-02T06:33:59.634Z,8.84
2018-12-02T06:36:31.702Z,8.86
2018-12-02T06:39:02.226Z,8.83
2018-12-02T06:41:34.113Z,8.83
2018-12-02T06:44:04.366Z,8.84
2018-12-02T06:46:35.386Z,8.79
2018-12-02T06:49:06.447Z,8.87
2018-12-02T06:51:36.977Z,8.85
2018-12-02T06:54:07.243Z,8.90
2018-12-02T06:56:46.340Z,8.90
2018-12-02T06:59:30.929Z,8.83
2018-12-02T07:02:37.715Z,8.92
2018-12-02T07:05:14.889Z,8.95
2018-12-02T07:07:46.266Z,8.94
2018-12-02T07:10:16.345Z,8.86
2018-12-02T07:12:47.188Z,8.78
2018-12-02T07:15:17.354Z,8.73
2018-12-02T07:17:51.514Z,8.77
2018-12-02T07:20:27.926Z,8.75
2018-12-02T07:23:04.521Z,8.78
2018-12-02T07:25:39.202Z,8.84
2018-12-02T07:28:09.257Z,8.74
2018-12-02T07:30:39.545Z,8.74
2018-12-02T07:33:10.405Z,8.75
2018-12-02T07:35:41.115Z,8.66
2018-12-02T07:38:53.739Z,8.53
2018-12-02T07:41:25.057Z,8.55
2018-12-02T07:43:56.941Z,8.64
2018-12-02T07:46:27.058Z,8.59
2018-12-02T07:48:58.550Z,8.61
2018-12-02T07:51:28.731Z,8.64
2018-12-02T07:53:58.899Z,8.62
2018-12-02T07:56:30.968Z,8.65
2018-12-02T07:59:04.268Z,8.58
2018-12-02T08:01:36.404Z,8.56
2018-12-02T08:04:07.288Z,8.53
2018-12-02T08:06:38.587Z,8.48
2018-12-02T08:09:09.671Z,8.45
2018-12-02T08:11:40.387Z,8.39
2018-12-02T08:14:12.344Z,8.36
2018-12-02T08:16:43.114Z,8.37
2018-12-02T08:19:15.353Z,8.35
2018-12-02T08:21:45.985Z,8.37
2018-12-02T08:24:17.286Z,8.43
2018-12-02T08:26:48.825Z,8.38
2018-12-02T08:29:18.866Z,8.47
2018-12-02T08:31:49.652Z,8.45
2018-12-02T08:34:20.804Z,8.45
2018-12-02T08:36:51.388Z,8.53
2018-12-02T08:39:23.216Z,8.51
2018-12-02T08:41:54.214Z,8.50
2018-12-02T08:44:25.521Z,8.55
2018-12-02T08:46:56.347Z,8.53
2018-12-02T08:49:27.627Z,8.48
2018-12-02T08:51:59.006Z,8.47
2018-12-02T08:54:29.086Z,8.47
2018-12-02T08:57:00.496Z,8.48
2018-12-02T08:59:31.360Z,8.51
2018-12-02T09:02:01.535Z,8.46
2018-12-02T09:04:31.628Z,8.45
2018-12-02T09:07:03.737Z,8.54
2018-12-02T09:09:36.792Z,8.56
2018-12-02T09:12:08.255Z,8.61
2018-12-02T09:14:39.467Z,8.58
2018-12-02T09:17:10.537Z,8.64
2018-12-02T09:19:40.703Z,8.67
2018-12-02T09:22:11.578Z,8.71
2018-12-02T09:24:41.549Z,8.73
2018-12-02T09:27:12.366Z,8.73
2018-12-02T09:29:43.379Z,8.71
2018-12-02T09:32:14.687Z,8.75
2018-12-02T09:34:44.793Z,8.83
2018-12-02T09:37:15.751Z,8.81
2018-12-02T09:39:45.741Z,8.88
2018-12-02T09:42:15.946Z,8.87
2018-12-02T09:44:46.911Z,8.85
2018-12-02T09:47:17.885Z,8.85
2018-12-02T09:49:48.465Z,8.87
2018-12-02T09:52:18.551Z,8.92
2018-12-02T09:54:49.863Z,8.88
2018-12-02T09:57:21.929Z,8.87
2018-12-02T09:59:52.466Z,8.92
2018-12-02T10:02:22.441Z,8.97
2018-12-02T10:04:53.745Z,9.02
2018-12-02T10:07:24.211Z,9.04
2018-12-02T10:09:54.900Z,9.15
2018-12-02T10:12:26.423Z,9.16
2018-12-02T10:14:56.486Z,9.18
2018-12-02T10:17:26.609Z,9.11
2018-12-02T10:19:56.802Z,9.06
2018-12-02T10:22:28.376Z,9.06
2018-12-02T10:24:58.477Z,9.10
2018-12-02T10:27:28.705Z,9.00
2018-12-02T10:29:59.271Z,9.06
2018-12-02T10:32:29.467Z,9.04
2018-12-02T10:35:00.323Z,9.02
2018-12-02T10:37:31.021Z,8.96
2018-12-02T10:40:01.685Z,9.11
2018-12-02T10:42:31.893Z,9.06
2018-12-02T10:45:03.577Z,9.06
2018-12-02T10:47:33.775Z,9.15
2018-12-02T10:50:05.076Z,9.21
2018-12-02T10:52:35.755Z,9.15
2018-12-02T10:55:09.507Z,9.18
2018-12-02T10:57:39.717Z,9.20
2018-12-02T11:00:16.656Z,9.19
2018-12-02T11:02:47.402Z,9.21
2018-12-02T11:05:18.702Z,9.31
2018-12-02T11:07:48.826Z,9.35
2018-12-02T11:10:19.411Z,9.44
2018-12-02T11:12:50.767Z,9.46
2018-12-02T11:15:23.266Z,9.38
2018-12-02T11:17:53.430Z,9.29
2018-12-02T11:20:24.038Z,9.34
2018-12-02T11:22:54.956Z,9.25
2018-12-02T11:25:24.960Z,9.18
2018-12-02T11:27:55.449Z,9.26
2018-12-02T11:30:25.625Z,9.28
2018-12-02T11:32:56.509Z,9.33
2018-12-02T11:35:27.615Z,9.23
2018-12-02T11:37:57.749Z,9.28
2018-12-02T11:40:29.217Z,9.25
2018-12-02T11:43:00.302Z,9.14
2018-12-02T11:45:30.299Z,9.20
2018-12-02T11:48:00.940Z,9.18
2018-12-02T11:50:34.282Z,9.15
2018-12-02T11:53:04.543Z,9.10
2018-12-02T11:55:35.782Z,9.20
2018-12-02T11:58:06.225Z,9.10
2018-12-02T12:00:40.061Z,9.08
2018-12-02T12:03:10.177Z,9.11
2018-12-02T12:05:42.031Z,9.14
2018-12-02T12:08:13.299Z,9.20
2018-12-02T12:10:43.739Z,9.11
2018-12-02T12:13:14.463Z,9.10
2018-12-02T12:15:45.366Z,9.18
2018-12-02T12:18:16.131Z,9.20
2018-12-02T12:20:46.872Z,9.17
2018-12-02T12:23:20.297Z,9.16
2018-12-02T12:25:50.444Z,9.11
2018-12-02T12:28:21.539Z,9.14
2018-12-02T12:30:51.558Z,9.18
2018-12-02T12:33:21.741Z,9.22
2018-12-02T12:35:52.749Z,9.25
2018-12-02T12:38:23.994Z,9.18
2018-12-02T12:40:54.166Z,9.14
2018-12-02T12:43:28.364Z,9.09
2018-12-02T12:45:59.559Z,9.12
2018-12-02T12:48:31.455Z,9.18
2018-12-02T12:51:03.091Z,9.19
2018-12-02T12:53:33.215Z,9.25
2018-12-02T12:56:04.807Z,9.25
2018-12-02T12:58:34.909Z,9.23
2018-12-02T13:01:05.089Z,9.25
2018-12-02T13:03:35.624Z,9.21
2018-12-02T13:06:06.975Z,9.20
2018-12-02T13:08:36.929Z,9.15
2018-12-02T13:11:07.210Z,9.17
2018-12-02T13:13:38.519Z,9.23
2018-12-02T13:16:09.549Z,9.23
2018-12-02T13:18:40.378Z,9.27
2018-12-02T13:21:11.174Z,9.27
2018-12-02T13:23:41.827Z,9.31
2018-12-02T13:26:13.388Z,9.24
2018-12-02T13:28:43.645Z,9.38
2018-12-02T13:31:14.895Z,9.32
2018-12-02T13:33:45.076Z,9.32
2018-12-02T13:36:15.925Z,9.38
2018-12-02T13:38:46.322Z,9.35
2018-12-02T13:41:16.548Z,9.41
2018-12-02T13:43:48.286Z,9.49
2018-12-02T13:46:17.344Z,9.53
2018-12-02T13:48:47.627Z,9.53
2018-12-02T13:51:17.816Z,9.57
2018-12-02T13:53:53.342Z,9.54
2018-12-02T13:56:24.078Z,9.65
2018-12-02T13:58:54.732Z,9.70
2018-12-02T14:01:24.937Z,9.74
2018-12-02T14:03:55.097Z,9.70
2018-12-02T14:06:25.902Z,9.80
2018-12-02T14:08:56.727Z,9.77
2018-12-02T14:11:26.867Z,9.77
2018-12-02T14:13:57.865Z,9.71
2018-12-02T14:16:37.541Z,9.73
2018-12-02T14:19:11.805Z,9.75
2018-12-02T14:21:42.741Z,9.75
2018-12-02T14:24:14.441Z,9.74
2018-12-02T14:26:47.158Z,9.65
2018-12-02T14:29:21.232Z,9.74
2018-12-02T14:31:54.588Z,9.70
2018-12-02T14:34:25.451Z,9.75
2018-12-02T14:36:55.564Z,9.73
2018-12-02T14:39:26.266Z,9.75
2018-12-02T14:41:56.382Z,9.74
2018-12-02T14:44:26.966Z,9.76
2018-12-02T14:46:57.646Z,9.77
2018-12-02T14:49:28.538Z,9.86
2018-12-02T14:52:00.571Z,9.84
2018-12-02T14:54:32.130Z,9.88
2018-12-02T14:57:02.250Z,9.92
2018-12-02T14:59:32.433Z,9.91
2018-12-02T15:02:02.594Z,10.01
2018-12-02T15:04:36.340Z,10.00
2018-12-02T15:07:07.138Z,9.99
2018-12-02T15:09:37.241Z,10.09
2018-12-02T15:12:07.894Z,10.11
2018-12-02T15:14:39.174Z,10.10
2018-12-02T15:17:09.682Z,10.15
2018-12-02T15:19:39.749Z,10.15
2018-12-02T15:22:11.489Z,10.20
2018-12-02T15:24:42.313Z,10.27
2018-12-02T15:27:13.334Z,10.26
2018-12-02T15:29:43.594Z,10.26
2018-12-02T15:32:13.750Z,10.31
2018-12-02T15:34:44.503Z,10.30
2018-12-02T15:37:15.349Z,10.33
2018-12-02T15:39:45.852Z,10.39
2018-12-02T15:42:17.997Z,10.42
2018-12-02T15:44:49.324Z,10.43
2018-12-02T15:47:19.479Z,10.50
2018-12-02T15:49:49.636Z,10.55
2018-12-02T15:52:19.784Z,10.60
2018-12-02T15:54:49.977Z,10.56
2018-12-02T15:57:21.423Z,10.59
2018-12-02T15:59:53.589Z,10.63
2018-12-02T16:02:23.825Z,10.57
2018-12-02T16:04:54.558Z,10.65
2018-12-02T16:07:25.832Z,10.62
2018-12-02T16:09:56.069Z,10.72
2018-12-02T16:12:27.129Z,10.76
2018-12-02T16:14:58.122Z,10.77
2018-12-02T16:17:29.038Z,10.72
2018-12-02T16:20:00.293Z,10.77
2018-12-02T16:22:30.394Z,10.75
2018-12-02T16:25:00.443Z,10.83
2018-12-02T16:27:31.095Z,10.93
2018-12-02T16:30:01.915Z,10.97
2018-12-02T16:32:32.028Z,10.96
2018-12-02T16:35:03.385Z,10.99
2018-12-02T16:37:34.018Z,10.95
2018-12-02T16:40:05.069Z,11.00
2018-12-02T16:42:35.965Z,10.99
2018-12-02T16:45:08.309Z,10.96
2018-12-02T16:47:39.383Z,10.97
2018-12-02T16:50:47.518Z,10.96
2018-12-02T16:53:26.635Z,10.89
2018-12-02T16:56:01.641Z,10.99
2018-12-02T16:59:44.665Z,10.97
2018-12-02T17:02:14.742Z,10.97
2018-12-02T17:04:45.527Z,10.95
2018-12-02T17:07:16.184Z,11.12
2018-12-02T17:09:49.159Z,11.16
2018-12-02T17:12:22.403Z,11.11
2018-12-02T17:14:52.600Z,11.23
2018-12-02T17:17:22.770Z,11.21
2018-12-02T17:19:54.571Z,11.24
2018-12-02T17:22:24.653Z,11.19
2018-12-02T17:24:56.055Z,11.21
2018-12-02T17:27:26.609Z,11.13
2018-12-02T17:29:57.432Z,11.29
2018-12-02T17:32:27.524Z,11.24
2018-12-02T17:34:58.398Z,11.27
2018-12-02T17:37:29.272Z,11.28
2018-12-02T17:40:00.258Z,11.28
2018-12-02T17:42:30.442Z,11.51
2018-12-02T17:45:00.740Z,11.58
2018-12-02T17:47:32.189Z,11.58
2018-12-02T17:50:03.349Z,11.63
2018-12-02T17:52:34.026Z,11.70
2018-12-02T17:55:04.950Z,11.72
2018-12-02T17:57:35.521Z,11.64
2018-12-02T18:00:11.433Z,11.70
2018-12-02T18:02:42.709Z,11.63
2018-12-02T18:05:16.506Z,11.65
2018-12-02T18:07:48.247Z,11.61
2018-12-02T18:10:18.430Z,11.58
2018-12-02T18:12:50.803Z,11.60
2018-12-02T18:15:21.759Z,11.54
2018-12-02T18:17:52.582Z,11.47
2018-12-02T18:20:25.258Z,11.51
2018-12-02T18:22:55.466Z,11.53
2018-12-02T18:25:26.535Z,11.49
2018-12-02T18:27:56.515Z,11.51
2018-12-02T18:30:27.964Z,11.63
2018-12-02T18:33:00.543Z,11.59
2018-12-02T18:35:42.485Z,11.53
2018-12-02T18:38:15.908Z,11.59
2018-12-02T18:40:57.462Z,11.68
2018-12-02T18:43:27.895Z,11.70
2018-12-02T18:45:59.690Z,11.63
2018-12-02T18:48:29.817Z,11.67
2018-12-02T18:51:00.138Z,11.69
2018-12-02T18:53:31.075Z,11.62
2018-12-02T18:56:01.160Z,11.57
2018-12-02T18:58:32.438Z,11.61
2018-12-02T19:01:03.045Z,11.57
2018-12-02T19:03:33.760Z,11.49
2018-12-02T19:06:04.036Z,11.49
2018-12-02T19:08:35.107Z,11.40
2018-12-02T19:11:06.822Z,11.26
2018-12-02T19:13:43.255Z,11.30
2018-12-02T19:16:09.027Z,11.22
2018-12-02T19:18:40.255Z,11.17
2018-12-02T19:21:18.246Z,11.12
2018-12-02T19:23:49.062Z,11.17
2018-12-02T19:26:19.773Z,11.10
2018-12-02T19:28:50.014Z,11.14
2018-12-02T19:31:20.831Z,11.13
2018-12-02T19:33:52.602Z,11.12
2018-12-02T19:36:31.956Z,11.27
2018-12-02T19:39:02.182Z,11.29
2018-12-02T19:41:32.267Z,11.36
2018-12-02T19:44:03.029Z,11.30
2018-12-02T19:46:33.091Z,11.39
2018-12-02T19:49:03.803Z,11.33
2018-12-02T19:51:35.926Z,11.30
2018-12-02T19:54:07.994Z,11.24
2018-12-02T19:56:39.267Z,11.17
2018-12-02T19:59:09.388Z,11.22
2018-12-02T20:01:39.521Z,11.26
2018-12-02T20:04:27.624Z,11.23
2018-12-02T20:06:57.728Z,11.29
2018-12-02T20:09:28.878Z,11.30
2018-12-02T20:11:59.860Z,11.31
2018-12-02T20:14:30.427Z,11.34
2018-12-02T20:17:07.478Z,11.32
2018-12-02T20:19:46.263Z,11.36
2018-12-02T20:22:48.741Z,11.34
2018-12-02T20:25:44.944Z,11.38
2018-12-02T20:28:51.826Z,11.45
2018-12-02T20:31:52.084Z,11.36
2018-12-02T20:34:23.571Z,11.46
2018-12-02T20:37:22.340Z,11.42
2018-12-02T20:39:53.619Z,11.43
2018-12-02T20:42:24.125Z,11.53
2018-12-02T20:44:55.316Z,11.60
2018-12-02T20:47:26.874Z,11.56
2018-12-02T20:49:57.728Z,11.59
2018-12-02T20:52:28.179Z,11.54
2018-12-02T20:54:59.038Z,11.53
2018-12-02T20:57:30.589Z,11.60
2018-12-02T21:00:01.975Z,11.65
2018-12-02T21:02:33.234Z,11.72
2018-12-02T21:05:03.973Z,11.59
2018-12-02T21:07:34.849Z,11.63
2018-12-02T21:10:06.117Z,11.63
2018-12-02T21:12:36.710Z,11.68
2018-12-02T21:15:11.307Z,11.61
2018-12-02T21:17:42.848Z,11.52
2018-12-02T21:20:14.039Z,11.53
2018-12-02T21:22:44.135Z,11.52
2018-12-02T21:25:16.381Z,11.49
2018-12-02T21:27:47.033Z,11.62
2018-12-02T21:30:25.558Z,11.62
2018-12-02T21:32:55.673Z,11.57
2018-12-02T21:35:25.808Z,11.58
2018-12-02T21:37:57.135Z,11.50
2018-12-02T21:40:27.266Z,11.57
2018-12-02T21:42:57.443Z,11.47
2018-12-02T21:45:27.609Z,11.35
2018-12-02T21:47:58.054Z,11.32
2018-12-02T21:50:30.911Z,11.23
2018-12-02T21:53:02.181Z,11.24
2018-12-02T21:55:32.345Z,11.35
2018-12-02T21:58:02.490Z,11.39
2018-12-02T22:00:38.288Z,11.44
2018-12-02T22:03:08.374Z,11.41
2018-12-02T22:05:39.034Z,11.32
2018-12-02T22:08:10.818Z,11.42
2018-12-02T22:10:40.899Z,11.32
2018-12-02T22:13:11.818Z,11.40
2018-12-02T22:15:43.650Z,11.47
2018-12-02T22:18:14.387Z,11.50
2018-12-02T22:20:46.682Z,11.33
2018-12-02T22:23:16.917Z,11.37
2018-12-02T22:25:47.071Z,11.30
2018-12-02T22:28:17.904Z,11.27
2018-12-02T22:30:48.183Z,11.32
2018-12-02T22:33:18.923Z,11.35
2018-12-02T22:35:50.156Z,11.39
2018-12-02T22:38:22.343Z,11.30
2018-12-02T22:40:54.200Z,11.36
2018-12-02T22:43:24.914Z,11.32
2018-12-02T22:45:55.757Z,11.21
2018-12-02T22:48:26.947Z,11.09
2018-12-02T22:50:57.862Z,11.10
2018-12-02T22:53:28.461Z,11.15
2018-12-02T22:55:59.472Z,11.13
2018-12-02T22:58:29.626Z,11.23
2018-12-02T23:01:07.183Z,11.27
2018-12-02T23:03:38.433Z,11.27
2018-12-02T23:06:09.481Z,11.42
2018-12-02T23:08:39.773Z,11.49
2018-12-02T23:11:10.325Z,11.68
2018-12-02T23:13:40.606Z,11.61
2018-12-02T23:16:11.070Z,11.68
2018-12-02T23:18:42.762Z,11.64
2018-12-02T23:21:12.961Z,11.65
2018-12-02T23:23:43.021Z,11.69
2018-12-02T23:26:13.744Z,11.66
2018-12-02T23:28:43.764Z,11.71
2018-12-02T23:31:14.072Z,11.67
2018-12-02T23:33:44.473Z,11.63
2018-12-02T23:36:14.895Z,11.56
2018-12-02T23:38:45.084Z,11.48
2018-12-02T23:41:15.394Z,11.57
2018-12-02T23:43:45.702Z,11.57
2018-12-02T23:46:16.216Z,11.49
2018-12-02T23:48:46.581Z,11.57
2018-12-02T23:51:16.806Z,11.56
2018-12-02T23:53:46.970Z,11.69
2018-12-02T23:56:17.517Z,11.58
2018-12-02T23:58:47.902Z,11.77
